TimeCDT,TemperatureF,Dew PointF,Humidity,Sea Level PressureIn,VisibilityMPH,Wind Direction,Wind SpeedMPH,Gust SpeedMPH,PrecipitationIn,Events,Conditions,WindDirDegrees,DateUTC
12:14 AM,77.0,64.4,65,29.87,10.0,South,6.9,-,N/A,,Clear,170,2013-07-07 05:14:00
12:33 AM,77.0,62.6,61,29.88,10.0,SSW,11.5,-,N/A,,Scattered Clouds,200,2013-07-07 05:33:00
12:54 AM,77.0,62.6,61,29.87,10.0,SSW,12.7,16.1,N/A,,Clear,200,2013-07-07 05:54:00
1:14 AM,77.0,62.6,61,29.87,10.0,South,10.4,-,N/A,,Clear,190,2013-07-07 06:14:00
1:34 AM,75.2,62.6,65,29.87,10.0,South,10.4,-,N/A,,Clear,190,2013-07-07 06:34:00
1:54 AM,73.4,62.6,69,29.88,10.0,SSW,9.2,-,N/A,,Clear,200,2013-07-07 06:54:00
2:13 AM,73.4,62.6,69,29.87,10.0,South,9.2,-,N/A,,Clear,190,2013-07-07 07:13:00
2:34 AM,73.4,62.6,69,29.88,10.0,South,9.2,-,N/A,,Clear,190,2013-07-07 07:34:00
2:54 AM,73.4,62.6,69,29.87,10.0,South,11.5,-,N/A,,Clear,190,2013-07-07 07:54:00
3:13 AM,71.6,60.8,69,29.88,10.0,South,9.2,-,N/A,,Clear,190,2013-07-07 08:13:00
3:34 AM,71.6,60.8,69,29.88,10.0,South,9.2,-,N/A,,Clear,190,2013-07-07 08:34:00
3:54 AM,71.6,62.6,73,29.88,10.0,South,8.1,-,N/A,,Clear,190,2013-07-07 08:54:00
4:14 AM,71.6,62.6,73,29.87,10.0,South,9.2,-,N/A,,Clear,180,2013-07-07 09:14:00
4:34 AM,71.6,62.6,73,29.87,10.0,South,6.9,-,N/A,,Clear,180,2013-07-07 09:34:00
4:54 AM,71.6,62.6,73,29.87,10.0,South,8.1,-,N/A,,Clear,180,2013-07-07 09:54:00
5:14 AM,69.8,62.6,78,29.87,10.0,South,9.2,-,N/A,,Clear,180,2013-07-07 10:14:00
5:34 AM,69.8,62.6,78,29.87,10.0,South,9.2,-,N/A,,Clear,180,2013-07-07 10:34:00
5:54 AM,69.8,62.6,78,29.87,7.0,South,8.1,-,N/A,,Clear,180,2013-07-07 10:54:00
6:14 AM,69.8,62.6,78,29.87,7.0,South,6.9,-,N/A,,Clear,190,2013-07-07 11:14:00
6:33 AM,69.8,62.6,78,29.87,10.0,South,8.1,-,N/A,,Clear,190,2013-07-07 11:33:00
6:54 AM,69.8,62.6,78,29.88,7.0,South,8.1,-,N/A,,Clear,190,2013-07-07 11:54:00
7:14 AM,71.6,62.6,73,29.88,10.0,South,9.2,-,N/A,,Clear,190,2013-07-07 12:14:00
7:34 AM,71.6,62.6,73,29.88,10.0,SSW,9.2,-,N/A,,Clear,200,2013-07-07 12:34:00
7:54 AM,73.4,62.6,69,29.89,10.0,SSW,11.5,-,N/A,,Clear,200,2013-07-07 12:54:00
8:14 AM,73.4,62.6,69,29.89,10.0,SSW,10.4,-,N/A,,Clear,210,2013-07-07 13:14:00
8:34 AM,77.0,62.6,61,29.89,10.0,SSW,12.7,18.4,N/A,,Clear,210,2013-07-07 13:34:00
8:54 AM,77.0,60.8,57,29.88,10.0,SW,15.0,-,N/A,,Clear,220,2013-07-07 13:54:00
9:14 AM,77.0,62.6,61,29.88,10.0,SW,11.5,-,N/A,,Clear,220,2013-07-07 14:14:00
9:34 AM,78.8,62.6,57,29.88,10.0,SW,10.4,-,N/A,,Clear,230,2013-07-07 14:34:00
9:54 AM,78.8,62.6,57,29.88,10.0,WSW,11.5,-,N/A,,Clear,240,2013-07-07 14:54:00
10:14 AM,78.8,62.6,57,29.88,10.0,SW,8.1,-,N/A,,Clear,230,2013-07-07 15:14:00
10:34 AM,80.6,62.6,54,29.88,10.0,WSW,8.1,-,N/A,,Clear,240,2013-07-07 15:34:00
10:54 AM,80.6,62.6,54,29.88,10.0,SSW,5.8,-,N/A,,Clear,210,2013-07-07 15:54:00
11:13 AM,80.6,62.6,54,29.88,10.0,NW,4.6,-,N/A,,Clear,310,2013-07-07 16:13:00
11:34 AM,82.4,62.6,51,29.88,10.0,WNW,4.6,-,N/A,,Clear,290,2013-07-07 16:34:00
11:53 AM,82.4,62.6,51,29.89,10.0,East,3.5,-,N/A,,Clear,80,2013-07-07 16:53:00
12:14 PM,82.4,62.6,51,29.88,10.0,Calm,Calm,-,N/A,,Clear,0,2013-07-07 17:14:00
12:34 PM,84.2,64.4,51,29.89,10.0,WNW,4.6,-,N/A,,Clear,300,2013-07-07 17:34:00
12:53 PM,86.0,64.4,48,29.88,10.0,NW,3.5,-,N/A,,Clear,310,2013-07-07 17:53:00
1:14 PM,86.0,62.6,45,29.88,10.0,WNW,5.8,-,N/A,,Clear,300,2013-07-07 18:14:00
1:34 PM,86.0,62.6,45,29.88,10.0,SW,3.5,-,N/A,,Clear,220,2013-07-07 18:34:00
1:53 PM,86.0,64.4,48,29.88,10.0,West,3.5,-,N/A,,Clear,260,2013-07-07 18:53:00
2:14 PM,87.8,62.6,43,29.88,10.0,West,3.5,-,N/A,,Clear,260,2013-07-07 19:14:00
2:34 PM,87.8,62.6,43,29.88,10.0,Calm,Calm,-,N/A,,Clear,0,2013-07-07 19:34:00
2:53 PM,87.8,62.6,43,29.88,10.0,SSW,4.6,-,N/A,,Clear,200,2013-07-07 19:53:00
3:14 PM,89.6,62.6,40,29.88,10.0,West,5.8,-,N/A,,Clear,270,2013-07-07 20:14:00
3:34 PM,89.6,62.6,40,29.88,10.0,Calm,Calm,-,N/A,,Clear,0,2013-07-07 20:34:00
3:53 PM,89.6,62.6,40,29.88,10.0,WSW,3.5,-,N/A,,Clear,250,2013-07-07 20:53:00
4:14 PM,87.8,62.6,43,29.88,10.0,WSW,3.5,-,N/A,,Clear,250,2013-07-07 21:14:00
4:34 PM,87.8,64.4,46,29.88,10.0,WSW,4.6,-,N/A,,Clear,250,2013-07-07 21:34:00
4:53 PM,89.6,64.4,43,29.87,10.0,SW,5.8,-,N/A,,Clear,230,2013-07-07 21:53:00
5:14 PM,89.6,64.4,43,29.87,10.0,WSW,5.8,-,N/A,,Clear,240,2013-07-07 22:14:00
5:33 PM,87.8,64.4,46,29.87,10.0,WNW,6.9,-,N/A,,Clear,290,2013-07-07 22:33:00
5:54 PM,87.8,64.4,46,29.87,10.0,WNW,5.8,-,N/A,,Clear,300,2013-07-07 22:54:00
6:14 PM,87.8,64.4,46,29.87,10.0,NNW,3.5,-,N/A,,Clear,340,2013-07-07 23:14:00
6:33 PM,87.8,62.6,43,29.87,10.0,Calm,Calm,-,N/A,,Clear,0,2013-07-07 23:33:00
6:54 PM,87.8,62.6,43,29.87,10.0,WNW,4.6,-,N/A,,Clear,300,2013-07-07 23:54:00
7:14 PM,87.8,64.4,46,29.88,10.0,WNW,4.6,-,N/A,,Scattered Clouds,290,2013-07-08 00:14:00
7:33 PM,86.0,66.2,51,29.88,10.0,WSW,3.5,-,N/A,,Scattered Clouds,250,2013-07-08 00:33:00
7:54 PM,86.0,68.0,55,29.88,10.0,SW,6.9,-,N/A,,Scattered Clouds,220,2013-07-08 00:54:00
8:13 PM,86.0,68.0,55,29.89,10.0,WSW,3.5,-,N/A,Thunderstorm,Scattered Clouds,240,2013-07-08 01:13:00
8:34 PM,78.8,62.6,57,29.89,10.0,NE,10.4,-,N/A,Thunderstorm,Mostly Cloudy,50,2013-07-08 01:34:00
8:54 PM,80.6,62.6,54,29.89,10.0,ENE,6.9,-,N/A,,Overcast,60,2013-07-08 01:54:00
9:13 PM,78.8,66.2,65,29.89,10.0,East,3.5,-,N/A,Rain,Light Rain,100,2013-07-08 02:13:00
9:34 PM,77.0,68.0,74,29.91,10.0,SSW,6.9,-,N/A,Thunderstorm,Mostly Cloudy,210,2013-07-08 02:34:00
9:54 PM,75.2,66.2,73,29.93,10.0,Calm,Calm,-,N/A,Thunderstorm,Thunderstorm,0,2013-07-08 02:54:00
10:13 PM,75.2,64.4,69,29.96,10.0,SSW,11.5,-,N/A,Thunderstorm,Thunderstorm,210,2013-07-08 03:13:00
10:34 PM,69.8,62.6,78,29.97,10.0,SSW,13.8,25.3,0.04,Rain-Thunderstorm,Rain,200,2013-07-08 03:34:00
10:54 PM,69.8,64.4,83,29.95,10.0,SSE,10.4,17.3,0.09,Rain-Thunderstorm,Light Thunderstorms and Rain,160,2013-07-08 03:54:00
11:13 PM,69.8,64.4,83,29.94,10.0,South,5.8,-,N/A,,Scattered Clouds,180,2013-07-08 04:13:00
11:34 PM,69.8,64.4,83,29.93,10.0,South,4.6,-,N/A,,Clear,180,2013-07-08 04:34:00
11:54 PM,69.8,64.4,83,29.94,10.0,Calm,Calm,-,N/A,,Clear,0,2013-07-08 04:54:00